sensor_id;sensor_type;location;lat;lon;timestamp;P1;durP1;ratioP1;P2;durP2;ratioP2
23565;SDS011;22140;48.988;8.544;2023-03-16T00:03:39;18.00;;;7.63;;
23565;SDS011;22140;48.988;8.544;2023-03-16T00:08:41;17.77;;;7.40;;
23565;SDS011;22140;48.988;8.544;2023-03-16T00:13:43;19.25;;;7.40;;
23565;SDS011;22140;48.988;8.544;2023-03-16T00:18:44;17.63;;;7.30;;
23565;SDS011;22140;48.988;8.544;2023-03-16T00:23:45;17.67;;;6.72;;
23565;SDS011;22140;48.988;8.544;2023-03-16T00:28:47;17.23;;;6.93;;
23565;SDS011;22140;48.988;8.544;2023-03-16T00:33:48;15.75;;;6.78;;
23565;SDS011;22140;48.988;8.544;2023-03-16T00:38:49;15.27;;;6.63;;
23565;SDS011;22140;48.988;8.544;2023-03-16T00:43:51;14.13;;;5.93;;
23565;SDS011;22140;48.988;8.544;2023-03-16T00:48:53;16.08;;;6.72;;
23565;SDS011;22140;48.988;8.544;2023-03-16T00:53:55;17.43;;;7.03;;
23565;SDS011;22140;48.988;8.544;2023-03-16T00:58:56;17.13;;;6.95;;
23565;SDS011;22140;48.988;8.544;2023-03-16T01:03:58;15.50;;;6.68;;
23565;SDS011;22140;48.988;8.544;2023-03-16T01:09:02;15.77;;;6.70;;
23565;SDS011;22140;48.988;8.544;2023-03-16T01:14:05;13.98;;;6.00;;
23565;SDS011;22140;48.988;8.544;2023-03-16T01:19:07;13.20;;;6.37;;
23565;SDS011;22140;48.988;8.544;2023-03-16T01:24:08;14.38;;;6.82;;
23565;SDS011;22140;48.988;8.544;2023-03-16T01:29:10;12.88;;;6.18;;
23565;SDS011;22140;48.988;8.544;2023-03-16T01:34:12;13.83;;;6.20;;
23565;SDS011;22140;48.988;8.544;2023-03-16T01:39:17;16.27;;;6.90;;
23565;SDS011;22140;48.988;8.544;2023-03-16T01:44:20;14.90;;;6.10;;
23565;SDS011;22140;48.988;8.544;2023-03-16T01:49:24;11.82;;;5.30;;
23565;SDS011;22140;48.988;8.544;2023-03-16T01:54:27;13.18;;;6.03;;
23565;SDS011;22140;48.988;8.544;2023-03-16T01:59:31;11.20;;;5.07;;
23565;SDS011;22140;48.988;8.544;2023-03-16T02:10:10;13.73;;;5.80;;
23565;SDS011;22140;48.988;8.544;2023-03-16T02:15:12;12.88;;;4.78;;
23565;SDS011;22140;48.988;8.544;2023-03-16T02:20:27;12.23;;;4.90;;
23565;SDS011;22140;48.988;8.544;2023-03-16T02:30:34;14.00;;;6.53;;
23565;SDS011;22140;48.988;8.544;2023-03-16T02:35:36;12.43;;;5.47;;
23565;SDS011;22140;48.988;8.544;2023-03-16T02:40:37;12.45;;;5.60;;
23565;SDS011;22140;48.988;8.544;2023-03-16T02:45:49;13.15;;;4.78;;
23565;SDS011;22140;48.988;8.544;2023-03-16T02:50:51;12.90;;;5.90;;
23565;SDS011;22140;48.988;8.544;2023-03-16T02:55:53;15.23;;;5.75;;
23565;SDS011;22140;48.988;8.544;2023-03-16T03:00:54;14.17;;;6.00;;
23565;SDS011;22140;48.988;8.544;2023-03-16T03:05:57;13.10;;;5.88;;
23565;SDS011;22140;48.988;8.544;2023-03-16T03:10:58;12.98;;;5.65;;
23565;SDS011;22140;48.988;8.544;2023-03-16T03:15:59;13.67;;;5.20;;
23565;SDS011;22140;48.988;8.544;2023-03-16T03:21:02;14.45;;;5.88;;
23565;SDS011;22140;48.988;8.544;2023-03-16T03:26:03;15.23;;;5.70;;
23565;SDS011;22140;48.988;8.544;2023-03-16T03:31:04;13.48;;;6.13;;
23565;SDS011;22140;48.988;8.544;2023-03-16T03:36:06;12.55;;;5.55;;
23565;SDS011;22140;48.988;8.544;2023-03-16T03:41:07;13.33;;;5.33;;
23565;SDS011;22140;48.988;8.544;2023-03-16T03:46:09;11.15;;;5.32;;
23565;SDS011;22140;48.988;8.544;2023-03-16T03:51:11;11.27;;;5.40;;
23565;SDS011;22140;48.988;8.544;2023-03-16T03:56:12;13.30;;;5.63;;
23565;SDS011;22140;48.988;8.544;2023-03-16T04:01:13;14.10;;;5.50;;
23565;SDS011;22140;48.988;8.544;2023-03-16T04:06:15;12.93;;;5.47;;
23565;SDS011;22140;48.988;8.544;2023-03-16T04:11:16;12.43;;;5.40;;
23565;SDS011;22140;48.988;8.544;2023-03-16T04:16:18;16.07;;;5.60;;
23565;SDS011;22140;48.988;8.544;2023-03-16T04:21:19;13.55;;;5.50;;
23565;SDS011;22140;48.988;8.544;2023-03-16T04:26:21;12.30;;;5.18;;
23565;SDS011;22140;48.988;8.544;2023-03-16T04:31:22;11.37;;;5.20;;
23565;SDS011;22140;48.988;8.544;2023-03-16T04:36:24;15.18;;;6.07;;
23565;SDS011;22140;48.988;8.544;2023-03-16T04:41:25;14.37;;;5.43;;
23565;SDS011;22140;48.988;8.544;2023-03-16T04:46:26;16.10;;;5.80;;
23565;SDS011;22140;48.988;8.544;2023-03-16T04:51:28;16.33;;;5.60;;
23565;SDS011;22140;48.988;8.544;2023-03-16T04:56:30;12.53;;;5.40;;
23565;SDS011;22140;48.988;8.544;2023-03-16T05:01:31;13.52;;;5.53;;
23565;SDS011;22140;48.988;8.544;2023-03-16T05:06:33;12.20;;;5.23;;
23565;SDS011;22140;48.988;8.544;2023-03-16T05:11:34;15.65;;;5.88;;
23565;SDS011;22140;48.988;8.544;2023-03-16T05:16:35;13.52;;;5.25;;
23565;SDS011;22140;48.988;8.544;2023-03-16T05:21:37;13.70;;;5.97;;
23565;SDS011;22140;48.988;8.544;2023-03-16T05:26:38;15.73;;;7.38;;
23565;SDS011;22140;48.988;8.544;2023-03-16T05:31:40;19.53;;;7.20;;
23565;SDS011;22140;48.988;8.544;2023-03-16T05:36:41;22.75;;;8.43;;
23565;SDS011;22140;48.988;8.544;2023-03-16T05:41:45;18.30;;;6.85;;
23565;SDS011;22140;48.988;8.544;2023-03-16T05:46:46;16.37;;;6.83;;
23565;SDS011;22140;48.988;8.544;2023-03-16T05:51:47;13.20;;;6.40;;
23565;SDS011;22140;48.988;8.544;2023-03-16T05:56:50;17.67;;;7.07;;
23565;SDS011;22140;48.988;8.544;2023-03-16T06:01:51;14.75;;;5.90;;
23565;SDS011;22140;48.988;8.544;2023-03-16T06:06:52;18.05;;;7.13;;
23565;SDS011;22140;48.988;8.544;2023-03-16T06:11:54;17.97;;;7.40;;
23565;SDS011;22140;48.988;8.544;2023-03-16T06:16:55;16.70;;;7.65;;
23565;SDS011;22140;48.988;8.544;2023-03-16T06:21:56;20.37;;;8.50;;
23565;SDS011;22140;48.988;8.544;2023-03-16T06:26:58;19.98;;;6.82;;
23565;SDS011;22140;48.988;8.544;2023-03-16T06:31:59;20.80;;;7.03;;
23565;SDS011;22140;48.988;8.544;2023-03-16T06:37:01;19.87;;;8.20;;
23565;SDS011;22140;48.988;8.544;2023-03-16T06:42:02;20.38;;;7.78;;
23565;SDS011;22140;48.988;8.544;2023-03-16T06:47:05;25.27;;;10.60;;
23565;SDS011;22140;48.988;8.544;2023-03-16T06:52:06;21.45;;;8.77;;
23565;SDS011;22140;48.988;8.544;2023-03-16T06:57:07;37.05;;;14.45;;
23565;SDS011;22140;48.988;8.544;2023-03-16T07:02:12;20.50;;;8.40;;
23565;SDS011;22140;48.988;8.544;2023-03-16T07:07:14;22.85;;;10.90;;
23565;SDS011;22140;48.988;8.544;2023-03-16T07:12:17;24.80;;;11.17;;
23565;SDS011;22140;48.988;8.544;2023-03-16T07:17:18;19.27;;;9.43;;
23565;SDS011;22140;48.988;8.544;2023-03-16T07:22:20;19.20;;;7.72;;
23565;SDS011;22140;48.988;8.544;2023-03-16T07:27:22;15.50;;;7.23;;
23565;SDS011;22140;48.988;8.544;2023-03-16T07:32:24;24.08;;;7.20;;
23565;SDS011;22140;48.988;8.544;2023-03-16T07:37:25;20.30;;;6.73;;
23565;SDS011;22140;48.988;8.544;2023-03-16T07:42:26;18.80;;;6.60;;
23565;SDS011;22140;48.988;8.544;2023-03-16T07:47:28;16.63;;;6.38;;
23565;SDS011;22140;48.988;8.544;2023-03-16T07:52:30;19.50;;;6.43;;
23565;SDS011;22140;48.988;8.544;2023-03-16T07:57:31;16.65;;;5.70;;
23565;SDS011;22140;48.988;8.544;2023-03-16T08:02:33;12.93;;;5.03;;
23565;SDS011;22140;48.988;8.544;2023-03-16T08:07:34;11.70;;;4.55;;
23565;SDS011;22140;48.988;8.544;2023-03-16T08:12:36;14.85;;;4.80;;
23565;SDS011;22140;48.988;8.544;2023-03-16T08:17:37;14.47;;;4.37;;
23565;SDS011;22140;48.988;8.544;2023-03-16T08:22:41;8.32;;;3.30;;
23565;SDS011;22140;48.988;8.544;2023-03-16T08:27:46;9.70;;;3.70;;
23565;SDS011;22140;48.988;8.544;2023-03-16T08:32:48;7.53;;;3.00;;
23565;SDS011;22140;48.988;8.544;2023-03-16T08:37:50;7.80;;;2.92;;
23565;SDS011;22140;48.988;8.544;2023-03-16T08:42:52;9.33;;;3.00;;
23565;SDS011;22140;48.988;8.544;2023-03-16T08:47:54;7.72;;;2.95;;
23565;SDS011;22140;48.988;8.544;2023-03-16T08:52:55;7.67;;;2.97;;
23565;SDS011;22140;48.988;8.544;2023-03-16T08:57:57;8.17;;;2.70;;
23565;SDS011;22140;48.988;8.544;2023-03-16T09:02:58;7.82;;;2.50;;
23565;SDS011;22140;48.988;8.544;2023-03-16T09:08:00;8.57;;;2.70;;
23565;SDS011;22140;48.988;8.544;2023-03-16T09:13:04;6.23;;;2.20;;
23565;SDS011;22140;48.988;8.544;2023-03-16T09:18:05;27.38;;;3.28;;
23565;SDS011;22140;48.988;8.544;2023-03-16T09:23:06;7.20;;;2.57;;
23565;SDS011;22140;48.988;8.544;2023-03-16T09:28:08;10.83;;;2.10;;
23565;SDS011;22140;48.988;8.544;2023-03-16T09:33:09;6.85;;;1.90;;
23565;SDS011;22140;48.988;8.544;2023-03-16T09:38:10;7.57;;;2.17;;
23565;SDS011;22140;48.988;8.544;2023-03-16T09:48:29;8.27;;;1.90;;
23565;SDS011;22140;48.988;8.544;2023-03-16T09:53:33;10.50;;;1.83;;
23565;SDS011;22140;48.988;8.544;2023-03-16T09:58:35;8.15;;;1.88;;
23565;SDS011;22140;48.988;8.544;2023-03-16T10:19:38;6.93;;;1.60;;
23565;SDS011;22140;48.988;8.544;2023-03-16T10:29:52;6.07;;;1.40;;
23565;SDS011;22140;48.988;8.544;2023-03-16T10:40:21;4.97;;;1.30;;
23565;SDS011;22140;48.988;8.544;2023-03-16T10:45:28;10.97;;;1.90;;
23565;SDS011;22140;48.988;8.544;2023-03-16T10:50:30;13.57;;;1.50;;
23565;SDS011;22140;48.988;8.544;2023-03-16T10:55:40;9.77;;;1.43;;
23565;SDS011;22140;48.988;8.544;2023-03-16T11:00:42;6.40;;;1.33;;
23565;SDS011;22140;48.988;8.544;2023-03-16T11:05:43;6.20;;;1.35;;
23565;SDS011;22140;48.988;8.544;2023-03-16T11:10:45;6.73;;;1.20;;
23565;SDS011;22140;48.988;8.544;2023-03-16T11:16:04;8.20;;;1.30;;
23565;SDS011;22140;48.988;8.544;2023-03-16T11:26:39;5.75;;;1.35;;
23565;SDS011;22140;48.988;8.544;2023-03-16T11:31:50;6.78;;;1.30;;
23565;SDS011;22140;48.988;8.544;2023-03-16T11:36:54;19.83;;;1.80;;
23565;SDS011;22140;48.988;8.544;2023-03-16T11:42:07;9.65;;;1.52;;
23565;SDS011;22140;48.988;8.544;2023-03-16T11:57:36;6.18;;;1.02;;
23565;SDS011;22140;48.988;8.544;2023-03-16T12:18:20;15.13;;;1.80;;
23565;SDS011;22140;48.988;8.544;2023-03-16T12:23:58;7.75;;;1.30;;
23565;SDS011;22140;48.988;8.544;2023-03-16T12:28:52;6.47;;;1.27;;
23565;SDS011;22140;48.988;8.544;2023-03-16T12:49:24;6.95;;;1.40;;
23565;SDS011;22140;48.988;8.544;2023-03-16T12:54:26;6.93;;;1.00;;
23565;SDS011;22140;48.988;8.544;2023-03-16T12:59:35;5.65;;;1.10;;
23565;SDS011;22140;48.988;8.544;2023-03-16T13:04:40;4.90;;;1.00;;
23565;SDS011;22140;48.988;8.544;2023-03-16T13:09:43;7.18;;;1.15;;
23565;SDS011;22140;48.988;8.544;2023-03-16T13:14:46;9.95;;;1.23;;
23565;SDS011;22140;48.988;8.544;2023-03-16T13:20:00;5.17;;;1.20;;
23565;SDS011;22140;48.988;8.544;2023-03-16T13:30:22;22.45;;;2.42;;
23565;SDS011;22140;48.988;8.544;2023-03-16T13:35:25;4.33;;;1.03;;
23565;SDS011;22140;48.988;8.544;2023-03-16T13:40:27;7.68;;;1.10;;
23565;SDS011;22140;48.988;8.544;2023-03-16T13:45:33;3.80;;;1.00;;
23565;SDS011;22140;48.988;8.544;2023-03-16T13:50:37;23.92;;;2.65;;
23565;SDS011;22140;48.988;8.544;2023-03-16T13:55:42;9.13;;;1.27;;
23565;SDS011;22140;48.988;8.544;2023-03-16T14:00:44;3.70;;;1.00;;
23565;SDS011;22140;48.988;8.544;2023-03-16T14:05:47;5.85;;;1.10;;
23565;SDS011;22140;48.988;8.544;2023-03-16T14:10:49;4.33;;;1.10;;
23565;SDS011;22140;48.988;8.544;2023-03-16T14:15:54;8.30;;;1.40;;
23565;SDS011;22140;48.988;8.544;2023-03-16T14:20:56;7.30;;;1.23;;
23565;SDS011;22140;48.988;8.544;2023-03-16T14:25:57;8.60;;;1.73;;
23565;SDS011;22140;48.988;8.544;2023-03-16T14:31:09;5.72;;;1.05;;
23565;SDS011;22140;48.988;8.544;2023-03-16T14:36:17;5.30;;;1.00;;
23565;SDS011;22140;48.988;8.544;2023-03-16T14:41:25;7.97;;;1.37;;
23565;SDS011;22140;48.988;8.544;2023-03-16T14:46:28;29.73;;;2.60;;
23565;SDS011;22140;48.988;8.544;2023-03-16T14:51:30;4.10;;;1.20;;
23565;SDS011;22140;48.988;8.544;2023-03-16T14:56:32;6.07;;;1.13;;
23565;SDS011;22140;48.988;8.544;2023-03-16T15:01:35;6.88;;;1.25;;
23565;SDS011;22140;48.988;8.544;2023-03-16T15:06:36;10.07;;;2.00;;
23565;SDS011;22140;48.988;8.544;2023-03-16T15:11:38;7.07;;;1.23;;
23565;SDS011;22140;48.988;8.544;2023-03-16T15:16:43;6.57;;;1.40;;
23565;SDS011;22140;48.988;8.544;2023-03-16T15:21:44;15.03;;;1.97;;
23565;SDS011;22140;48.988;8.544;2023-03-16T15:26:46;7.15;;;1.50;;
23565;SDS011;22140;48.988;8.544;2023-03-16T15:31:47;14.63;;;2.03;;
23565;SDS011;22140;48.988;8.544;2023-03-16T15:36:48;12.93;;;1.90;;
23565;SDS011;22140;48.988;8.544;2023-03-16T15:41:50;14.00;;;1.60;;
23565;SDS011;22140;48.988;8.544;2023-03-16T15:46:51;6.47;;;1.55;;
23565;SDS011;22140;48.988;8.544;2023-03-16T15:51:55;43.17;;;3.20;;
23565;SDS011;22140;48.988;8.544;2023-03-16T15:56:56;17.45;;;2.20;;
23565;SDS011;22140;48.988;8.544;2023-03-16T16:01:58;9.97;;;1.87;;
23565;SDS011;22140;48.988;8.544;2023-03-16T16:06:59;7.63;;;1.80;;
23565;SDS011;22140;48.988;8.544;2023-03-16T16:12:02;12.85;;;1.95;;
23565;SDS011;22140;48.988;8.544;2023-03-16T16:17:04;14.30;;;2.33;;
23565;SDS011;22140;48.988;8.544;2023-03-16T16:22:09;18.73;;;2.20;;
23565;SDS011;22140;48.988;8.544;2023-03-16T16:27:11;6.15;;;1.73;;
23565;SDS011;22140;48.988;8.544;2023-03-16T16:32:21;9.67;;;1.87;;
23565;SDS011;22140;48.988;8.544;2023-03-16T16:37:23;14.85;;;2.67;;
23565;SDS011;22140;48.988;8.544;2023-03-16T16:42:24;20.30;;;2.37;;
23565;SDS011;22140;48.988;8.544;2023-03-16T16:47:26;12.73;;;2.10;;
23565;SDS011;22140;48.988;8.544;2023-03-16T16:52:27;16.92;;;2.80;;
23565;SDS011;22140;48.988;8.544;2023-03-16T16:57:28;9.03;;;2.00;;
23565;SDS011;22140;48.988;8.544;2023-03-16T17:02:52;10.25;;;1.95;;
23565;SDS011;22140;48.988;8.544;2023-03-16T17:07:53;19.63;;;3.57;;
23565;SDS011;22140;48.988;8.544;2023-03-16T17:12:54;9.23;;;2.60;;
23565;SDS011;22140;48.988;8.544;2023-03-16T17:18:08;10.65;;;2.10;;
23565;SDS011;22140;48.988;8.544;2023-03-16T17:23:29;9.83;;;2.57;;
23565;SDS011;22140;48.988;8.544;2023-03-16T17:28:33;9.93;;;2.60;;
23565;SDS011;22140;48.988;8.544;2023-03-16T17:33:35;12.33;;;2.30;;
23565;SDS011;22140;48.988;8.544;2023-03-16T17:38:37;10.95;;;2.50;;
23565;SDS011;22140;48.988;8.544;2023-03-16T17:43:38;12.70;;;2.58;;
23565;SDS011;22140;48.988;8.544;2023-03-16T17:48:39;11.40;;;2.40;;
23565;SDS011;22140;48.988;8.544;2023-03-16T17:53:41;9.18;;;1.77;;
23565;SDS011;22140;48.988;8.544;2023-03-16T17:58:44;20.40;;;3.20;;
23565;SDS011;22140;48.988;8.544;2023-03-16T18:03:45;15.27;;;2.40;;
23565;SDS011;22140;48.988;8.544;2023-03-16T18:08:47;13.35;;;2.80;;
23565;SDS011;22140;48.988;8.544;2023-03-16T18:13:49;20.40;;;3.33;;
23565;SDS011;22140;48.988;8.544;2023-03-16T18:18:51;11.32;;;4.13;;
23565;SDS011;22140;48.988;8.544;2023-03-16T18:23:53;22.40;;;5.37;;
23565;SDS011;22140;48.988;8.544;2023-03-16T18:28:55;12.45;;;4.28;;
23565;SDS011;22140;48.988;8.544;2023-03-16T18:34:00;11.25;;;3.65;;
23565;SDS011;22140;48.988;8.544;2023-03-16T18:39:04;25.27;;;4.93;;
23565;SDS011;22140;48.988;8.544;2023-03-16T18:49:21;49.03;;;5.20;;
23565;SDS011;22140;48.988;8.544;2023-03-16T18:54:24;31.25;;;6.78;;
23565;SDS011;22140;48.988;8.544;2023-03-16T18:59:26;30.48;;;6.30;;
23565;SDS011;22140;48.988;8.544;2023-03-16T19:04:28;13.17;;;4.80;;
23565;SDS011;22140;48.988;8.544;2023-03-16T19:09:30;18.70;;;6.05;;
23565;SDS011;22140;48.988;8.544;2023-03-16T19:14:32;19.70;;;6.87;;
23565;SDS011;22140;48.988;8.544;2023-03-16T19:19:34;21.10;;;6.75;;
23565;SDS011;22140;48.988;8.544;2023-03-16T19:29:43;19.83;;;5.77;;
23565;SDS011;22140;48.988;8.544;2023-03-16T19:34:44;21.20;;;6.68;;
23565;SDS011;22140;48.988;8.544;2023-03-16T19:39:46;14.37;;;6.13;;
23565;SDS011;22140;48.988;8.544;2023-03-16T19:44:48;13.93;;;5.68;;
23565;SDS011;22140;48.988;8.544;2023-03-16T19:49:50;22.05;;;7.22;;
23565;SDS011;22140;48.988;8.544;2023-03-16T19:54:51;18.20;;;7.30;;
23565;SDS011;22140;48.988;8.544;2023-03-16T19:59:54;19.23;;;6.82;;
23565;SDS011;22140;48.988;8.544;2023-03-16T20:04:56;15.70;;;6.00;;
23565;SDS011;22140;48.988;8.544;2023-03-16T20:09:57;16.50;;;6.78;;
23565;SDS011;22140;48.988;8.544;2023-03-16T20:14:58;21.55;;;8.13;;
23565;SDS011;22140;48.988;8.544;2023-03-16T20:20:00;24.30;;;10.27;;
23565;SDS011;22140;48.988;8.544;2023-03-16T20:25:02;15.93;;;6.65;;
23565;SDS011;22140;48.988;8.544;2023-03-16T20:30:12;17.27;;;5.93;;
23565;SDS011;22140;48.988;8.544;2023-03-16T20:35:15;18.67;;;7.40;;
23565;SDS011;22140;48.988;8.544;2023-03-16T20:40:17;13.50;;;4.60;;
23565;SDS011;22140;48.988;8.544;2023-03-16T20:45:20;14.77;;;5.63;;
23565;SDS011;22140;48.988;8.544;2023-03-16T20:50:24;17.00;;;8.23;;
23565;SDS011;22140;48.988;8.544;2023-03-16T20:55:26;14.27;;;5.13;;
23565;SDS011;22140;48.988;8.544;2023-03-16T21:05:30;19.77;;;8.75;;
23565;SDS011;22140;48.988;8.544;2023-03-16T21:10:32;15.37;;;6.87;;
23565;SDS011;22140;48.988;8.544;2023-03-16T21:15:33;19.33;;;8.13;;
23565;SDS011;22140;48.988;8.544;2023-03-16T21:20:35;16.37;;;7.50;;
23565;SDS011;22140;48.988;8.544;2023-03-16T21:25:39;16.92;;;6.20;;
23565;SDS011;22140;48.988;8.544;2023-03-16T21:30:45;14.15;;;5.63;;
23565;SDS011;22140;48.988;8.544;2023-03-16T21:35:47;12.17;;;4.77;;
23565;SDS011;22140;48.988;8.544;2023-03-16T21:40:49;19.25;;;8.23;;
23565;SDS011;22140;48.988;8.544;2023-03-16T21:45:50;27.07;;;12.83;;
23565;SDS011;22140;48.988;8.544;2023-03-16T21:50:52;18.10;;;7.88;;
23565;SDS011;22140;48.988;8.544;2023-03-16T21:55:54;14.90;;;5.00;;
23565;SDS011;22140;48.988;8.544;2023-03-16T22:00:56;17.73;;;7.10;;
23565;SDS011;22140;48.988;8.544;2023-03-16T22:05:58;17.85;;;6.05;;
23565;SDS011;22140;48.988;8.544;2023-03-16T22:11:00;13.97;;;5.30;;
23565;SDS011;22140;48.988;8.544;2023-03-16T22:16:04;16.08;;;6.20;;
23565;SDS011;22140;48.988;8.544;2023-03-16T22:26:17;14.00;;;4.93;;
23565;SDS011;22140;48.988;8.544;2023-03-16T22:31:21;22.85;;;9.68;;
23565;SDS011;22140;48.988;8.544;2023-03-16T22:36:26;19.77;;;7.93;;
23565;SDS011;22140;48.988;8.544;2023-03-16T22:41:28;18.95;;;8.27;;
23565;SDS011;22140;48.988;8.544;2023-03-16T22:46:29;14.52;;;7.03;;
23565;SDS011;22140;48.988;8.544;2023-03-16T22:51:32;18.87;;;7.07;;
23565;SDS011;22140;48.988;8.544;2023-03-16T22:56:34;12.90;;;4.72;;
23565;SDS011;22140;48.988;8.544;2023-03-16T23:01:40;14.07;;;5.73;;
23565;SDS011;22140;48.988;8.544;2023-03-16T23:06:42;11.88;;;4.15;;
23565;SDS011;22140;48.988;8.544;2023-03-16T23:11:44;11.48;;;4.50;;
23565;SDS011;22140;48.988;8.544;2023-03-16T23:16:46;12.70;;;5.37;;
23565;SDS011;22140;48.988;8.544;2023-03-16T23:21:48;13.48;;;5.20;;
23565;SDS011;22140;48.988;8.544;2023-03-16T23:26:50;12.13;;;5.23;;
23565;SDS011;22140;48.988;8.544;2023-03-16T23:31:51;15.20;;;4.68;;
23565;SDS011;22140;48.988;8.544;2023-03-16T23:36:53;13.25;;;4.85;;
23565;SDS011;22140;48.988;8.544;2023-03-16T23:41:55;12.30;;;4.80;;
23565;SDS011;22140;48.988;8.544;2023-03-16T23:46:57;13.48;;;5.03;;
23565;SDS011;22140;48.988;8.544;2023-03-16T23:51:59;15.07;;;5.53;;
23565;SDS011;22140;48.988;8.544;2023-03-16T23:57:01;14.48;;;5.38;;
